createdAt,value
2022-11-01T00:01:50.732Z,98269.97
2022-11-01T00:04:18.256Z,98270.41
2022-11-01T00:06:45.423Z,98277.41
2022-11-01T00:09:12.545Z,98266.25
2022-11-01T00:11:39.750Z,98269.78
2022-11-01T00:14:07.154Z,98268.84
2022-11-01T00:16:34.392Z,98258.31
2022-11-01T00:19:01.617Z,98272.59
2022-11-01T00:21:28.668Z,98260.97
2022-11-01T00:23:55.781Z,98272.09
2022-11-01T00:26:23.776Z,98263.88
2022-11-01T00:28:51.420Z,98264.06
2022-11-01T00:31:19.383Z,98271.13
2022-11-01T00:33:46.983Z,98263.66
2022-11-01T00:36:14.052Z,98254.13
2022-11-01T00:38:41.159Z,98251.28
2022-11-01T00:41:08.252Z,98258.94
2022-11-01T00:43:35.964Z,98255.47
2022-11-01T00:46:03.808Z,98254.88
2022-11-01T00:48:31.369Z,98259.81
2022-11-01T00:50:58.502Z,98261.66
2022-11-01T00:53:25.604Z,98260.63
2022-11-01T00:55:52.642Z,98256.09
2022-11-01T00:58:19.698Z,98244.94
2022-11-01T01:00:47.442Z,98254.28
2022-11-01T01:03:14.538Z,98247.41
2022-11-01T01:05:41.758Z,98250.06
2022-11-01T01:08:08.806Z,98245.72
2022-11-01T01:10:35.960Z,98252.38
2022-11-01T01:13:03.486Z,98245.34
2022-11-01T01:15:30.869Z,98256.72
2022-11-01T01:17:58.131Z,98248.41
2022-11-01T01:20:25.175Z,98247.59
2022-11-01T01:22:52.251Z,98252.75
2022-11-01T01:25:20.906Z,98249.50
2022-11-01T01:27:48.070Z,98255.06
2022-11-01T01:30:15.609Z,98259.19
2022-11-01T01:32:42.745Z,98270.56
2022-11-01T01:35:10.157Z,98266.84
2022-11-01T01:37:37.287Z,98273.88
2022-11-01T01:40:05.602Z,98282.56
2022-11-01T01:42:32.596Z,98277.59
2022-11-01T01:44:59.618Z,98275.94
2022-11-01T01:47:37.204Z,98269.34
2022-11-01T01:50:09.334Z,98265.22
2022-11-01T01:52:40.059Z,98267.69
2022-11-01T01:55:08.699Z,98277.19
2022-11-01T01:57:36.838Z,98275.56
2022-11-01T02:00:05.337Z,98283.41
2022-11-01T02:02:38.506Z,98284.66
2022-11-01T02:05:12.207Z,98278.50
2022-11-01T02:07:39.228Z,98275.59
2022-11-01T02:10:06.646Z,98279.34
2022-11-01T02:12:36.198Z,98290.94
2022-11-01T02:15:04.683Z,98285.56
2022-11-01T02:17:41.060Z,98284.56
2022-11-01T02:20:10.931Z,98282.72
2022-11-01T02:22:37.967Z,98274.03
2022-11-01T02:25:10.949Z,98284.38
2022-11-01T02:27:41.248Z,98280.22
2022-11-01T02:30:16.675Z,98277.56
2022-11-01T02:33:19.268Z,98280.66
2022-11-01T02:35:46.420Z,98277.13
2022-11-01T02:38:32.069Z,98281.91
2022-11-01T02:41:03.553Z,98273.44
2022-11-01T02:43:36.740Z,98275.28
2022-11-01T02:46:25.698Z,98280.66
2022-11-01T02:48:53.421Z,98284.81
2022-11-01T02:51:22.724Z,98290.19
2022-11-01T02:53:49.751Z,98284.81
2022-11-01T02:56:17.711Z,98286.25
2022-11-01T02:58:45.955Z,98291.84
2022-11-01T03:01:17.716Z,98282.31
2022-11-01T03:03:48.723Z,98270.34
2022-11-01T03:06:23.008Z,98272.81
2022-11-01T03:08:54.512Z,98272.00
2022-11-01T03:11:24.292Z,98279.88
2022-11-01T03:14:12.130Z,98285.25
2022-11-01T03:16:54.469Z,98280.28
2022-11-01T03:19:36.556Z,98281.94
2022-11-01T03:22:09.486Z,98284.84
2022-11-01T03:24:42.293Z,98295.59
2022-11-01T03:27:32.508Z,98287.31
2022-11-01T03:30:06.987Z,98297.66
2022-11-01T03:32:45.382Z,98292.31
2022-11-01T03:35:16.149Z,98298.28
2022-11-01T03:37:44.432Z,98301.38
2022-11-01T03:40:13.371Z,98300.75
2022-11-01T03:42:41.088Z,98308.38
2022-11-01T03:45:11.157Z,98296.41
2022-11-01T03:47:38.328Z,98304.66
2022-11-01T03:50:31.645Z,98304.47
2022-11-01T03:52:58.694Z,98309.00
2022-11-01T03:55:26.153Z,98311.50
2022-11-01T03:57:54.578Z,98325.56
2022-11-01T04:00:25.947Z,98320.19
2022-11-01T04:02:53.922Z,98319.16
2022-11-01T04:05:22.011Z,98328.00
2022-11-01T04:07:49.568Z,98313.75
2022-11-01T04:10:17.078Z,98318.47
2022-11-01T04:12:45.085Z,98320.75
2022-11-01T04:15:30.950Z,98320.75
2022-11-01T04:18:23.516Z,98316.59
2022-11-01T04:20:51.704Z,98315.31
2022-11-01T04:23:18.781Z,98312.22
2022-11-01T04:25:49.026Z,98304.16
2022-11-01T04:28:16.039Z,98307.88
2022-11-01T04:30:43.831Z,98310.75
2022-11-01T04:33:10.866Z,98314.28
2022-11-01T04:35:38.178Z,98315.91
2022-11-01T04:38:05.657Z,98307.00
2022-11-01T04:40:34.345Z,98315.22
2022-11-01T04:43:01.700Z,98312.31
2022-11-01T04:45:28.797Z,98331.09
2022-11-01T04:48:06.528Z,98330.84
2022-11-01T04:50:34.581Z,98324.22
2022-11-01T04:53:02.601Z,98326.31
2022-11-01T04:55:29.990Z,98327.56
2022-11-01T04:57:57.345Z,98338.72
2022-11-01T05:00:24.826Z,98340.19
2022-11-01T05:02:52.476Z,98329.66
2022-11-01T05:05:19.496Z,98337.47
2022-11-01T05:07:46.549Z,98344.03
2022-11-01T05:10:13.560Z,98344.03
2022-11-01T05:12:40.761Z,98350.69
2022-11-01T05:15:08.403Z,98362.47
2022-11-01T05:17:35.408Z,98368.03
2022-11-01T05:20:02.451Z,98366.81
2022-11-01T05:22:29.510Z,98374.59
2022-11-01T05:24:56.633Z,98374.59
2022-11-01T05:27:23.702Z,98374.00
2022-11-01T05:29:50.760Z,98378.25
2022-11-01T05:32:17.895Z,98375.38
2022-11-01T05:34:46.725Z,98379.72
2022-11-01T05:37:13.810Z,98378.94
2022-11-01T05:39:40.828Z,98391.97
2022-11-01T05:42:07.881Z,98395.25
2022-11-01T05:44:34.936Z,98405.59
2022-11-01T05:47:02.851Z,98408.88
2022-11-01T05:49:30.034Z,98415.06
2022-11-01T05:51:57.188Z,98415.91
2022-11-01T05:54:24.349Z,98426.19
2022-11-01T05:56:51.374Z,98423.69
2022-11-01T05:59:18.432Z,98420.44
2022-11-01T06:01:45.576Z,98433.06
2022-11-01T06:04:12.743Z,98432.22
2022-11-01T06:06:39.835Z,98433.06
2022-11-01T06:09:06.843Z,98437.81
2022-11-01T06:11:37.785Z,98444.47
2022-11-01T06:14:10.396Z,98446.53
2022-11-01T06:16:37.432Z,98445.31
2022-11-01T06:19:04.460Z,98459.94
2022-11-01T06:21:31.516Z,98452.88
2022-11-01T06:23:58.586Z,98459.06
2022-11-01T06:26:25.621Z,98465.03
2022-11-01T06:28:52.658Z,98467.31
2022-11-01T06:31:20.055Z,98477.84
2022-11-01T06:33:48.730Z,98482.00
2022-11-01T06:36:15.922Z,98482.84
2022-11-01T06:38:42.957Z,98487.38
2022-11-01T06:41:10.073Z,98495.19
2022-11-01T06:43:37.163Z,98484.09
2022-11-01T06:46:04.359Z,98495.88
2022-11-01T06:48:31.464Z,98499.63
2022-11-01T06:50:58.612Z,98508.31
2022-11-01T06:53:25.796Z,98511.63
2022-11-01T06:55:52.829Z,98509.78
2022-11-01T06:58:19.952Z,98520.31
2022-11-01T07:00:47.078Z,98524.25
2022-11-01T07:03:14.615Z,98522.63
2022-11-01T07:05:41.797Z,98528.81
2022-11-01T07:08:13.031Z,98533.16
2022-11-01T07:10:41.338Z,98532.16
2022-11-01T07:13:10.066Z,98538.56
2022-11-01T07:15:37.236Z,98546.03
2022-11-01T07:18:05.959Z,98542.13
2022-11-01T07:20:41.426Z,98554.31
2022-11-01T07:23:15.604Z,98555.56
2022-11-01T07:25:43.131Z,98561.19
2022-11-01T07:28:10.740Z,98575.22
2022-11-01T07:30:37.819Z,98581.88
2022-11-01T07:33:05.367Z,98580.84
2022-11-01T07:35:33.871Z,98586.44
2022-11-01T07:38:02.827Z,98598.03
2022-11-01T07:40:32.308Z,98592.66
2022-11-01T07:43:00.202Z,98595.16
2022-11-01T07:45:28.585Z,98590.19
2022-11-01T07:48:03.112Z,98592.28
2022-11-01T07:50:31.448Z,98595.84
2022-11-01T07:52:59.196Z,98603.72
2022-11-01T07:55:26.288Z,98608.50
2022-11-01T07:57:53.363Z,98614.75
2022-11-01T08:00:20.962Z,98618.91
2022-11-01T08:02:48.108Z,98625.56
2022-11-01T08:05:15.286Z,98637.59
2022-11-01T08:07:42.338Z,98658.28
2022-11-01T08:10:10.901Z,98685.00
2022-11-01T08:12:38.279Z,98713.78
2022-11-01T08:15:05.554Z,98746.25
2022-11-01T08:17:35.800Z,98779.59
2022-11-01T08:20:02.839Z,98813.56
2022-11-01T08:22:30.020Z,98849.59
2022-11-01T08:24:57.040Z,98880.47
2022-11-01T08:27:24.133Z,98915.03
2022-11-01T08:29:51.279Z,98928.72
2022-11-01T08:32:21.633Z,98947.78
2022-11-01T08:34:48.961Z,98970.84
2022-11-01T08:37:17.699Z,98988.03
2022-11-01T08:39:45.143Z,98994.31
2022-11-01T08:42:12.213Z,98998.69
2022-11-01T08:44:39.289Z,99008.09
2022-11-01T08:47:06.346Z,99017.66
2022-11-01T08:49:33.439Z,99014.78
2022-11-01T08:52:00.499Z,99018.16
2022-11-01T08:54:27.587Z,99025.66
2022-11-01T08:56:54.689Z,99022.13
2022-11-01T08:59:21.746Z,99008.25
2022-11-01T09:01:51.144Z,98993.16
2022-11-01T09:04:18.279Z,98976.38
2022-11-01T09:06:45.367Z,98950.69
2022-11-01T09:09:12.713Z,98913.19
2022-11-01T09:11:39.983Z,98892.47
2022-11-01T09:14:07.085Z,98874.63
2022-11-01T09:16:34.179Z,98866.13
2022-11-01T09:19:02.620Z,98845.75
2022-11-01T09:21:31.782Z,98835.78
2022-11-01T09:23:59.803Z,98819.75
2022-11-01T09:26:29.811Z,98810.16
2022-11-01T09:28:58.668Z,98793.69
2022-11-01T09:31:26.029Z,98787.56
2022-11-01T09:33:57.042Z,98783.56
2022-11-01T09:36:24.573Z,98778.78
2022-11-01T09:38:51.766Z,98779.91
2022-11-01T09:41:27.687Z,98782.56
2022-11-01T09:43:56.919Z,98782.72
2022-11-01T09:46:26.357Z,98784.16
2022-11-01T09:48:55.333Z,98780.25
2022-11-01T09:51:24.089Z,98787.75
2022-11-01T09:53:53.949Z,98782.19
2022-11-01T09:56:30.309Z,98773.63
2022-11-01T09:59:07.468Z,98774.03
2022-11-01T10:01:39.480Z,98757.13
2022-11-01T10:04:06.625Z,98761.22
2022-11-01T10:06:36.551Z,98767.75
2022-11-01T10:09:16.900Z,98768.41
2022-11-01T10:12:01.208Z,98766.38
2022-11-01T10:14:31.025Z,98766.34
2022-11-01T10:17:10.332Z,98771.53
2022-11-01T10:19:37.949Z,98765.84
2022-11-01T10:22:07.589Z,98777.28
2022-11-01T10:24:40.434Z,98760.22
2022-11-01T10:27:26.583Z,98760.69
2022-11-01T10:29:53.597Z,98752.19
2022-11-01T10:32:27.982Z,98745.13
2022-11-01T10:34:59.021Z,98728.50
2022-11-01T10:37:33.575Z,98731.03
2022-11-01T10:40:09.258Z,98731.63
2022-11-01T10:42:36.961Z,98725.78
2022-11-01T10:45:07.488Z,98724.75
2022-11-01T10:47:34.623Z,98721.19
2022-11-01T10:50:08.131Z,98720.38
2022-11-01T10:52:50.605Z,98731.00
2022-11-01T10:55:20.127Z,98735.16
2022-11-01T10:58:00.231Z,98739.97
2022-11-01T11:00:27.995Z,98731.50
2022-11-01T11:02:56.946Z,98731.75
2022-11-01T11:05:25.387Z,98736.34
2022-11-01T11:07:52.479Z,98741.28
2022-11-01T11:10:24.883Z,98741.66
2022-11-01T11:12:54.173Z,98740.38
2022-11-01T11:15:23.477Z,98740.38
2022-11-01T11:17:54.250Z,98741.59
2022-11-01T11:20:24.097Z,98742.78
2022-11-01T11:22:51.560Z,98744.00
2022-11-01T11:25:20.041Z,98739.75
2022-11-01T11:27:48.607Z,98733.06
2022-11-01T11:30:32.675Z,98733.06
2022-11-01T11:33:02.034Z,98730.63
2022-11-01T11:35:32.568Z,98731.63
2022-11-01T11:38:04.959Z,98727.47
2022-11-01T11:40:38.464Z,98727.84
2022-11-01T11:43:25.983Z,98720.31
2022-11-01T11:46:11.752Z,98716.91
2022-11-01T11:48:52.328Z,98715.88
2022-11-01T11:51:23.110Z,98718.31
2022-11-01T11:54:07.168Z,98712.91
2022-11-01T11:56:34.214Z,98701.19
2022-11-01T11:59:21.970Z,98712.13
2022-11-01T12:01:49.257Z,98712.47
2022-11-01T12:04:18.937Z,98715.91
2022-11-01T12:06:46.477Z,98711.31
2022-11-01T12:09:32.179Z,98708.81
2022-11-01T12:12:05.450Z,98709.56
2022-11-01T12:14:34.356Z,98709.09
2022-11-01T12:17:05.887Z,98700.72
2022-11-01T12:19:35.436Z,98698.97
2022-11-01T12:22:03.035Z,98704.41
2022-11-01T12:24:50.335Z,98706.06
2022-11-01T12:27:20.094Z,98694.28
2022-11-01T12:29:53.432Z,98690.84
2022-11-01T12:32:25.112Z,98692.28
2022-11-01T12:34:53.777Z,98684.75
2022-11-01T12:37:26.344Z,98689.69
2022-11-01T12:39:53.374Z,98682.38
2022-11-01T12:42:32.617Z,98673.53
2022-11-01T12:45:06.196Z,98676.25
2022-11-01T12:47:42.116Z,98659.16
2022-11-01T12:50:18.266Z,98648.66
2022-11-01T12:52:54.863Z,98648.06
2022-11-01T12:55:21.914Z,98636.72
2022-11-01T12:57:49.090Z,98642.53
2022-11-01T13:00:17.521Z,98637.31
2022-11-01T13:03:04.499Z,98635.22
2022-11-01T13:05:42.489Z,98634.94
2022-11-01T13:08:09.568Z,98627.28
2022-11-01T13:10:39.177Z,98632.69
2022-11-01T13:13:12.269Z,98619.50
2022-11-01T13:15:51.304Z,98617.25
2022-11-01T13:18:43.792Z,98608.41
2022-11-01T13:21:13.599Z,98611.56
2022-11-01T13:23:49.218Z,98610.50
2022-11-01T13:26:21.097Z,98607.97
2022-11-01T13:29:00.432Z,98598.53
2022-11-01T13:31:27.633Z,98595.00
2022-11-01T13:34:01.759Z,98600.88
2022-11-01T13:36:34.881Z,98597.34
2022-11-01T13:39:20.378Z,98592.50
2022-11-01T13:41:53.378Z,98590.06
2022-11-01T13:44:27.419Z,98581.09
2022-11-01T13:46:54.468Z,98575.91
2022-11-01T13:49:44.856Z,98574.88
2022-11-01T13:52:19.678Z,98565.53
2022-11-01T13:55:05.151Z,98569.66
2022-11-01T13:57:32.595Z,98563.91
2022-11-01T14:00:01.203Z,98567.66
2022-11-01T14:02:46.116Z,98562.25
2022-11-01T14:05:13.551Z,98566.00
2022-11-01T14:07:43.407Z,98558.94
2022-11-01T14:10:22.993Z,98566.84
2022-11-01T14:12:56.412Z,98556.59
2022-11-01T14:15:24.934Z,98558.34
2022-11-01T14:18:08.796Z,98562.72
2022-11-01T14:20:38.603Z,98552.69
2022-11-01T14:23:24.512Z,98550.81
2022-11-01T14:26:11.483Z,98551.88
2022-11-01T14:28:48.913Z,98552.94
2022-11-01T14:31:17.505Z,98550.22
2022-11-01T14:33:45.404Z,98557.28
2022-11-01T14:36:14.228Z,98550.22
2022-11-01T14:39:02.560Z,98552.94
2022-11-01T14:41:32.645Z,98556.69
2022-11-01T14:44:03.174Z,98553.16
2022-11-01T14:46:31.294Z,98556.13
2022-11-01T14:49:04.574Z,98547.41
2022-11-01T14:51:35.437Z,98548.69
2022-11-01T14:54:05.326Z,98557.03
2022-11-01T14:56:39.804Z,98556.69
2022-11-01T14:59:34.515Z,98550.88
2022-11-01T15:02:05.066Z,98549.50
2022-11-01T15:04:43.812Z,98555.13
2022-11-01T15:07:19.149Z,98552.88
2022-11-01T15:09:59.344Z,98554.53
2022-11-01T15:12:47.836Z,98553.94
2022-11-01T15:15:17.376Z,98552.28
2022-11-01T15:17:50.737Z,98554.41
2022-11-01T15:20:19.352Z,98553.22
2022-11-01T15:22:46.750Z,98550.31
2022-11-01T15:25:21.343Z,98554.56
2022-11-01T15:27:49.702Z,98565.84
2022-11-01T15:30:19.827Z,98559.25
2022-11-01T15:32:49.883Z,98556.16
2022-11-01T15:35:25.434Z,98554.38
2022-11-01T15:37:53.999Z,98555.19
2022-11-01T15:40:29.568Z,98559.19
2022-11-01T15:42:58.138Z,98562.34
2022-11-01T15:45:32.387Z,98558.22
2022-11-01T15:48:06.938Z,98554.91
2022-11-01T15:50:35.841Z,98559.25
2022-11-01T15:53:07.342Z,98555.72
2022-11-01T15:55:36.127Z,98555.97
2022-11-01T15:58:06.991Z,98555.38
2022-11-01T16:00:34.335Z,98560.78
2022-11-01T16:03:15.022Z,98559.34
2022-11-01T16:05:44.842Z,98564.63
2022-11-01T16:08:23.518Z,98567.19
2022-11-01T16:10:50.550Z,98569.28
2022-11-01T16:13:18.910Z,98568.91
2022-11-01T16:16:05.136Z,98565.63
2022-11-01T16:18:36.672Z,98573.13
2022-11-01T16:21:20.898Z,98565.22
2022-11-01T16:24:09.258Z,98564.41
2022-11-01T16:26:53.444Z,98579.81
2022-11-01T16:29:37.736Z,98586.50
2022-11-01T16:32:09.733Z,98584.84
2022-11-01T16:34:37.364Z,98579.88
2022-11-01T16:37:14.334Z,98580.34
2022-11-01T16:39:42.028Z,98580.78
2022-11-01T16:42:09.540Z,98581.81
2022-11-01T16:44:36.677Z,98593.06
2022-11-01T16:47:03.786Z,98592.94
2022-11-01T16:49:31.210Z,98600.00
2022-11-01T16:51:58.364Z,98602.56
2022-11-01T16:54:25.789Z,98610.03
2022-11-01T16:56:54.453Z,98615.88
2022-11-01T16:59:33.642Z,98611.56
2022-11-01T17:02:02.416Z,98617.19
2022-11-01T17:04:29.702Z,98625.28
2022-11-01T17:06:58.270Z,98618.44
2022-11-01T17:09:28.686Z,98623.47
2022-11-01T17:11:55.843Z,98630.13
2022-11-01T17:14:22.922Z,98631.41
2022-11-01T17:16:51.031Z,98636.44
2022-11-01T17:19:26.187Z,98640.16
2022-11-01T17:21:54.050Z,98639.13
2022-11-01T17:24:22.769Z,98645.56
2022-11-01T17:26:51.128Z,98643.72
2022-11-01T17:29:18.312Z,98647.66
2022-11-01T17:31:45.432Z,98654.72
2022-11-01T17:34:12.504Z,98646.84
2022-11-01T17:36:42.834Z,98651.19
2022-11-01T17:39:10.338Z,98646.00
2022-11-01T17:41:37.787Z,98654.34
2022-11-01T17:44:05.286Z,98651.88
2022-11-01T17:46:32.721Z,98649.38
2022-11-01T17:48:59.764Z,98647.72
2022-11-01T17:51:26.797Z,98658.16
2022-11-01T17:53:54.917Z,98650.44
2022-11-01T17:56:22.920Z,98658.56
2022-11-01T17:58:52.673Z,98667.69
2022-11-01T18:01:20.757Z,98661.91
2022-11-01T18:03:48.090Z,98667.31
2022-11-01T18:06:15.475Z,98673.34
2022-11-01T18:08:46.804Z,98673.34
2022-11-01T18:11:22.910Z,98670.88
2022-11-01T18:14:05.989Z,98681.91
2022-11-01T18:16:33.022Z,98670.72
2022-11-01T18:19:18.663Z,98670.72
2022-11-01T18:21:52.335Z,98676.56
2022-11-01T18:24:24.353Z,98672.84
2022-11-01T18:26:51.555Z,98683.88
2022-11-01T18:29:23.996Z,98684.09
2022-11-01T18:32:12.208Z,98675.78
2022-11-01T18:34:40.226Z,98681.19
2022-11-01T18:37:13.114Z,98682.50
2022-11-01T18:39:51.333Z,98681.47
2022-11-01T18:42:18.394Z,98686.25
2022-11-01T18:44:45.516Z,98684.97
2022-11-01T18:47:15.907Z,98691.19
2022-11-01T18:49:43.159Z,98700.13
2022-11-01T18:52:11.546Z,98696.59
2022-11-01T18:54:41.482Z,98707.84
2022-11-01T18:57:14.357Z,98705.34
2022-11-01T18:59:41.694Z,98709.31
2022-11-01T19:02:12.127Z,98713.28
2022-11-01T19:04:42.221Z,98720.34
2022-11-01T19:07:10.236Z,98722.44
2022-11-01T19:09:38.085Z,98719.53
2022-11-01T19:12:15.866Z,98712.75
2022-11-01T19:14:43.522Z,98717.94
2022-11-01T19:17:23.588Z,98712.53
2022-11-01T19:19:54.326Z,98716.31
2022-11-01T19:22:27.804Z,98710.09
2022-11-01T19:24:54.840Z,98724.59
2022-11-01T19:27:22.762Z,98720.69
2022-11-01T19:29:54.050Z,98714.31
2022-11-01T19:32:25.319Z,98719.94
2022-11-01T19:34:52.811Z,98714.75
2022-11-01T19:37:33.121Z,98714.75
2022-11-01T19:40:04.973Z,98708.50
2022-11-01T19:42:32.083Z,98713.50
2022-11-01T19:45:02.876Z,98713.72
2022-11-01T19:47:35.205Z,98720.16
2022-11-01T19:50:02.368Z,98715.78
2022-11-01T19:52:36.481Z,98719.34
2022-11-01T19:55:24.049Z,98717.69
2022-11-01T19:57:51.265Z,98717.28
2022-11-01T20:00:19.477Z,98716.63
2022-11-01T20:02:48.552Z,98725.13
2022-11-01T20:05:30.870Z,98720.75
2022-11-01T20:08:14.207Z,98722.88
2022-11-01T20:10:41.256Z,98722.03
2022-11-01T20:13:09.330Z,98724.31
2022-11-01T20:15:36.430Z,98725.97
2022-11-01T20:18:04.022Z,98729.28
2022-11-01T20:20:32.537Z,98724.53
2022-11-01T20:23:20.244Z,98719.53
2022-11-01T20:25:47.684Z,98717.47
2022-11-01T20:28:15.062Z,98721.00
2022-11-01T20:30:42.089Z,98721.38
2022-11-01T20:33:09.186Z,98726.56
2022-11-01T20:35:36.246Z,98731.50
2022-11-01T20:38:03.308Z,98732.53
2022-11-01T20:40:30.387Z,98732.75
2022-11-01T20:42:57.434Z,98730.47
2022-11-01T20:45:24.467Z,98727.97
2022-11-01T20:47:51.575Z,98730.88
2022-11-01T20:50:18.919Z,98731.69
2022-11-01T20:52:46.116Z,98734.19
2022-11-01T20:55:13.210Z,98730.44
2022-11-01T20:57:40.297Z,98727.94
2022-11-01T21:00:09.951Z,98729.97
2022-11-01T21:02:37.020Z,98737.00
2022-11-01T21:05:15.198Z,98733.25
2022-11-01T21:07:46.867Z,98728.25
2022-11-01T21:10:35.108Z,98731.53
2022-11-01T21:13:04.009Z,98736.66
2022-11-01T21:15:31.301Z,98739.59
2022-11-01T21:18:07.490Z,98739.84
2022-11-01T21:20:35.933Z,98746.22
2022-11-01T21:23:32.058Z,98753.47
2022-11-01T21:26:06.567Z,98748.53
2022-11-01T21:28:40.662Z,98752.66
2022-11-01T21:31:10.709Z,98757.84
2022-11-01T21:33:39.068Z,98755.78
2022-11-01T21:36:21.025Z,98755.59
2022-11-01T21:38:49.568Z,98750.59
2022-11-01T21:41:16.923Z,98749.38
2022-11-01T21:43:43.980Z,98752.66
2022-11-01T21:46:16.273Z,98738.00
2022-11-01T21:48:43.297Z,98754.97
2022-11-01T21:51:10.343Z,98759.31
2022-11-01T21:53:37.490Z,98758.88
2022-11-01T21:56:04.720Z,98753.09
2022-11-01T21:58:31.826Z,98757.44
2022-11-01T22:00:59.359Z,98753.47
2022-11-01T22:03:26.515Z,98760.91
2022-11-01T22:05:53.583Z,98751.59
2022-11-01T22:08:20.662Z,98744.97
2022-11-01T22:10:47.730Z,98751.34
2022-11-01T22:13:15.330Z,98750.53
2022-11-01T22:15:42.431Z,98743.50
2022-11-01T22:18:09.459Z,98740.56
2022-11-01T22:20:36.542Z,98736.41
2022-11-01T22:23:03.880Z,98739.69
2022-11-01T22:25:31.133Z,98734.25
2022-11-01T22:27:58.190Z,98736.28
2022-11-01T22:30:25.289Z,98732.75
2022-11-01T22:32:52.419Z,98734.63
2022-11-01T22:35:19.449Z,98737.50
2022-11-01T22:37:46.494Z,98737.69
2022-11-01T22:40:14.029Z,98736.03
2022-11-01T22:42:41.376Z,98742.22
2022-11-01T22:45:15.272Z,98744.53
2022-11-01T22:47:42.665Z,98742.50
2022-11-01T22:50:12.340Z,98739.16
2022-11-01T22:52:41.887Z,98729.22
2022-11-01T22:55:11.757Z,98730.44
2022-11-01T22:57:54.696Z,98734.28
2022-11-01T23:00:22.073Z,98721.59
2022-11-01T23:02:49.251Z,98728.41
2022-11-01T23:05:22.004Z,98723.56
2022-11-01T23:07:50.404Z,98724.19
2022-11-01T23:10:23.669Z,98724.84
2022-11-01T23:13:31.414Z,98736.19
2022-11-01T23:15:59.580Z,98724.44
2022-11-01T23:18:28.735Z,98730.22
2022-11-01T23:21:08.995Z,98732.69
2022-11-01T23:23:46.222Z,98727.91
2022-11-01T23:26:14.454Z,98730.97
2022-11-01T23:28:43.185Z,98730.13
2022-11-01T23:31:10.837Z,98729.31
2022-11-01T23:33:42.103Z,98738.41
2022-11-01T23:36:13.203Z,98742.72
2022-11-01T23:38:48.547Z,98737.59
2022-11-01T23:41:24.940Z,98755.34
2022-11-01T23:43:54.364Z,98759.88
2022-11-01T23:46:21.500Z,98761.09
2022-11-01T23:48:49.132Z,98762.16
2022-11-01T23:51:19.596Z,98763.47
2022-11-01T23:53:48.595Z,98766.16
2022-11-01T23:56:18.124Z,98769.03
2022-11-01T23:58:45.475Z,98771.47
